Time;durP1;ratioP1;P1;durP2;ratioP2;P2;SDS_P1;SDS_P2;PMS_P1;PMS_P2;Temp;Humidity;BMP_temperature;BMP_pressure;BME280_temperature;BME280_humidity;BME280_pressure;Samples;Min_cycle;Max_cycle;Signal;HPM_P1;HPM_P2
2022/02/26 00:01:20;;;;;;;18.80;8.70;;;;;;;4.15;56.30;100729.29;131054;1267;108934;-80
2022/02/26 00:04:26;;;;;;;18.80;9.80;;;;;;;4.15;56.33;100734.52;130739;1267;107875;-79
2022/02/26 00:07:32;;;;;;;19.10;9.00;;;;;;;4.12;56.29;100741.41;130244;1267;108698;-78
2022/02/26 00:10:37;;;;;;;18.50;8.90;;;;;;;4.11;56.21;100741.66;130513;1267;108845;-78
2022/02/26 00:13:43;;;;;;;21.10;10.00;;;;;;;4.09;56.27;100740.38;130384;1267;109002;-78
2022/02/26 00:16:48;;;;;;;21.40;9.30;;;;;;;4.07;56.35;100749.83;130528;1268;107709;-79
2022/02/26 00:19:53;;;;;;;18.00;8.80;;;;;;;4.04;56.36;100754.59;130568;1267;108810;-79
2022/02/26 00:22:59;;;;;;;18.80;8.70;;;;;;;4.04;56.45;100762.88;130466;1267;108711;-79
2022/02/26 00:26:04;;;;;;;17.60;8.30;;;;;;;4.03;56.33;100764.04;130494;1267;108815;-76
2022/02/26 00:29:10;;;;;;;16.40;8.30;;;;;;;4.02;56.53;100769.69;130415;1267;108801;-80
2022/02/26 00:32:15;;;;;;;19.50;9.00;;;;;;;4.02;56.33;100771.98;130483;1267;108580;-79
2022/02/26 00:35:21;;;;;;;18.90;8.80;;;;;;;4.01;56.61;100776.09;130533;1267;109115;-79
2022/02/26 00:38:26;;;;;;;18.80;8.40;;;;;;;4.00;56.39;100783.88;130653;1267;108772;-79
2022/02/26 00:41:32;;;;;;;16.60;8.00;;;;;;;3.98;56.44;100785.47;130644;1267;107593;-78
2022/02/26 00:44:39;;;;;;;17.40;7.90;;;;;;;3.96;56.52;100789.66;130646;1267;108508;-78
2022/02/26 00:47:44;;;;;;;16.90;8.20;;;;;;;3.94;56.45;100796.61;130571;1267;108670;-78
2022/02/26 00:50:49;;;;;;;17.50;7.90;;;;;;;3.92;56.29;100796.56;130593;1267;108861;-79
2022/02/26 00:53:55;;;;;;;18.30;8.00;;;;;;;3.89;56.28;100797.98;130549;1267;108921;-79
2022/02/26 00:57:00;;;;;;;17.10;8.20;;;;;;;3.86;56.45;100799.91;130494;1267;108926;-79
2022/02/26 01:00:09;;;;;;;18.10;9.00;;;;;;;3.84;56.60;100803.77;130484;1267;164336;-79
2022/02/26 01:03:14;;;;;;;18.10;8.80;;;;;;;3.82;56.63;100805.29;130783;1267;108764;-80
2022/02/26 01:06:20;;;;;;;16.10;8.20;;;;;;;3.81;56.64;100801.45;130727;1267;108443;-79
2022/02/26 01:09:25;;;;;;;16.40;8.00;;;;;;;3.80;56.73;100801.36;130828;1267;108765;-80
2022/02/26 01:12:30;;;;;;;21.10;8.80;;;;;;;3.79;56.72;100806.54;130603;1267;108734;-78
2022/02/26 01:15:36;;;;;;;14.70;8.00;;;;;;;3.79;56.79;100805.83;130733;1268;108146;-79
2022/02/26 01:18:42;;;;;;;19.10;8.60;;;;;;;3.79;56.73;100802.47;130521;1267;108682;-78
2022/02/26 01:21:47;;;;;;;16.30;8.00;;;;;;;3.79;56.84;100800.72;130718;1267;108759;-79
2022/02/26 01:24:53;;;;;;;16.80;7.90;;;;;;;3.79;56.85;100798.27;130543;1267;108722;-78
2022/02/26 01:27:58;;;;;;;14.20;7.20;;;;;;;3.79;56.99;100800.39;130373;1267;108726;-79
2022/02/26 01:31:03;;;;;;;17.70;8.20;;;;;;;3.79;56.96;100800.54;130460;1267;108971;-79
2022/02/26 01:34:09;;;;;;;15.00;7.20;;;;;;;3.80;57.00;100805.41;130407;1267;108901;-79
2022/02/26 01:37:15;;;;;;;16.10;8.00;;;;;;;3.77;57.00;100807.89;130650;1267;108898;-78
2022/02/26 01:40:20;;;;;;;18.50;8.40;;;;;;;3.73;57.22;100815.13;130438;1267;108974;-80
2022/02/26 01:43:26;;;;;;;17.30;8.10;;;;;;;3.73;57.25;100814.10;130490;1267;108713;-79
2022/02/26 01:46:32;;;;;;;16.80;8.10;;;;;;;3.73;57.42;100813.21;130593;1267;108871;-80
2022/02/26 01:49:37;;;;;;;18.60;8.40;;;;;;;3.74;57.43;100812.48;130633;1267;108855;-78
2022/02/26 01:52:43;;;;;;;16.10;8.60;;;;;;;3.73;57.40;100807.21;130591;1267;109121;-80
2022/02/26 01:55:50;;;;;;;17.50;8.20;;;;;;;3.71;57.68;100812.25;131009;1267;108401;-80
2022/02/26 01:58:55;;;;;;;17.60;8.30;;;;;;;3.67;57.53;100809.88;130916;1267;107872;-80
2022/02/26 02:02:02;;;;;;;18.30;9.10;;;;;;;3.63;57.62;100816.86;130933;1267;107722;-80
2022/02/26 02:05:08;;;;;;;17.60;8.00;;;;;;;3.56;57.84;100823.76;130927;1267;108551;-80
2022/02/26 02:08:14;;;;;;;16.20;8.30;;;;;;;3.49;57.68;100830.31;130821;1267;109795;-79
2022/02/26 02:11:20;;;;;;;16.00;8.00;;;;;;;3.44;57.88;100832.40;130453;1267;108890;-79
2022/02/26 02:14:25;;;;;;;16.30;8.10;;;;;;;3.39;58.02;100841.52;130405;1267;108841;-79
2022/02/26 02:17:31;;;;;;;18.60;8.30;;;;;;;3.33;58.14;100840.97;130382;1268;108881;-79
2022/02/26 02:20:37;;;;;;;17.50;8.30;;;;;;;3.28;58.14;100846.72;130380;1267;109235;-78
2022/02/26 02:23:44;;;;;;;16.80;7.40;;;;;;;3.23;58.38;100851.92;130302;1267;108707;-79
2022/02/26 02:26:51;;;;;;;16.30;7.70;;;;;;;3.20;58.32;100856.04;130344;1267;108766;-79
2022/02/26 02:29:56;;;;;;;16.90;7.60;;;;;;;3.12;58.47;100857.66;130443;1267;108854;-78
2022/02/26 02:33:03;;;;;;;15.90;7.70;;;;;;;3.07;58.48;100858.52;130368;1267;108940;-79
2022/02/26 02:36:08;;;;;;;24.20;12.30;;;;;;;3.01;58.50;100858.88;130330;1268;108834;-78
2022/02/26 02:39:15;;;;;;;28.30;11.90;;;;;;;2.93;58.65;100862.86;130384;1268;108830;-79
2022/02/26 02:42:20;;;;;;;33.30;13.20;;;;;;;2.86;58.61;100868.39;130493;1267;109206;-79
2022/02/26 02:45:26;;;;;;;26.30;11.20;;;;;;;2.78;58.75;100874.80;130379;1268;107675;-79
2022/02/26 02:48:33;;;;;;;23.00;8.90;;;;;;;2.72;58.78;100883.05;130332;1268;108730;-78
2022/02/26 02:51:38;;;;;;;20.90;11.30;;;;;;;2.65;58.83;100886.03;130448;1268;108841;-78
2022/02/26 02:54:44;;;;;;;18.40;9.00;;;;;;;2.59;59.05;100885.90;130460;1267;108646;-78
2022/02/26 02:57:50;;;;;;;16.20;8.00;;;;;;;2.53;58.96;100889.20;130442;1267;110151;-80
2022/02/26 03:00:56;;;;;;;14.90;8.20;;;;;;;2.45;58.85;100892.64;130454;1268;108867;-77
2022/02/26 03:04:02;;;;;;;15.60;7.60;;;;;;;2.34;58.93;100893.08;130484;1267;108493;-79
2022/02/26 03:07:07;;;;;;;15.00;7.60;;;;;;;2.26;58.93;100896.83;130421;1267;108916;-79
2022/02/26 03:10:13;;;;;;;14.90;7.40;;;;;;;2.16;59.18;100905.97;130397;1268;107802;-79
2022/02/26 03:13:20;;;;;;;13.30;7.30;;;;;;;2.09;59.24;100912.84;130363;1267;108701;-79
2022/02/26 03:16:25;;;;;;;14.50;7.40;;;;;;;2.03;59.30;100914.56;130406;1267;107399;-78
2022/02/26 03:19:31;;;;;;;13.90;7.60;;;;;;;1.98;59.49;100919.42;130413;1267;108905;-78
2022/02/26 03:22:36;;;;;;;14.90;7.60;;;;;;;1.94;59.61;100921.17;130289;1268;107727;-78
2022/02/26 03:25:42;;;;;;;15.80;7.30;;;;;;;1.90;59.56;100920.66;130333;1267;108778;-79
2022/02/26 03:28:47;;;;;;;15.00;7.80;;;;;;;1.85;59.54;100924.48;130356;1267;108859;-81
2022/02/26 03:31:53;;;;;;;14.70;8.00;;;;;;;1.78;59.56;100936.21;130324;1268;108941;-79
2022/02/26 03:34:59;;;;;;;15.40;7.90;;;;;;;1.73;59.68;100945.78;130230;1267;107730;-79
2022/02/26 03:38:04;;;;;;;14.50;7.70;;;;;;;1.71;59.75;100950.80;130321;1267;109015;-78
2022/02/26 03:41:13;;;;;;;14.90;7.60;;;;;;;1.74;59.89;100951.87;130379;1268;109516;-78
2022/02/26 03:44:19;;;;;;;23.70;11.00;;;;;;;1.81;59.94;100958.88;130435;1267;108669;-78
2022/02/26 03:47:24;;;;;;;16.10;8.50;;;;;;;1.86;60.05;100961.79;130427;1268;107777;-78
2022/02/26 03:50:30;;;;;;;19.50;9.80;;;;;;;1.92;60.26;100964.45;130359;1267;108885;-78
2022/02/26 03:53:36;;;;;;;17.90;8.80;;;;;;;2.00;60.26;100963.73;130289;1268;108872;-79
2022/02/26 03:56:42;;;;;;;13.60;7.40;;;;;;;2.07;60.37;100966.27;130342;1268;106651;-79
2022/02/26 03:59:47;;;;;;;14.00;7.80;;;;;;;2.13;60.40;100970.58;130381;1267;108680;-78
2022/02/26 04:02:52;;;;;;;15.20;8.30;;;;;;;2.17;60.49;100975.27;130405;1268;108706;-79
2022/02/26 04:05:58;;;;;;;14.30;7.90;;;;;;;2.19;60.52;100979.39;130354;1268;107736;-78
2022/02/26 04:09:04;;;;;;;14.60;7.80;;;;;;;2.19;60.53;100986.06;130232;1268;108941;-78
2022/02/26 04:12:11;;;;;;;15.90;7.70;;;;;;;2.18;60.66;100987.49;130419;1267;106688;-79
2022/02/26 04:15:17;;;;;;;15.40;7.20;;;;;;;2.15;60.54;100987.80;130535;1268;108840;-79
2022/02/26 04:18:22;;;;;;;15.00;7.00;;;;;;;2.11;60.64;100992.04;130403;1268;108670;-79
2022/02/26 04:21:28;;;;;;;15.10;7.60;;;;;;;2.10;60.60;101001.42;130144;1268;107463;-78
2022/02/26 04:24:34;;;;;;;13.90;7.30;;;;;;;2.09;60.62;101003.41;130440;1267;107666;-79
2022/02/26 04:27:41;;;;;;;16.10;7.70;;;;;;;2.06;60.56;101010.55;130394;1268;108761;-79
2022/02/26 04:30:48;;;;;;;16.60;7.80;;;;;;;1.96;60.58;101014.41;130436;1267;108772;-78
2022/02/26 04:33:54;;;;;;;15.70;7.70;;;;;;;1.87;60.45;101018.40;130427;1268;108623;-79
2022/02/26 04:36:59;;;;;;;14.40;7.20;;;;;;;1.76;60.68;101018.95;130404;1267;108874;-79
2022/02/26 04:40:07;;;;;;;12.90;6.50;;;;;;;1.67;60.62;101020.98;130406;1268;108644;-78
2022/02/26 04:43:12;;;;;;;14.60;7.60;;;;;;;1.56;60.68;101024.34;130410;1268;108883;-78
2022/02/26 04:46:18;;;;;;;17.40;9.10;;;;;;;1.46;60.79;101030.27;130373;1268;108768;-79
2022/02/26 04:49:23;;;;;;;15.50;7.80;;;;;;;1.36;60.66;101029.16;130345;1267;108981;-79
2022/02/26 04:52:28;;;;;;;22.80;10.30;;;;;;;1.22;60.71;101032.33;130327;1267;108926;-77
2022/02/26 04:55:34;;;;;;;16.30;7.80;;;;;;;1.11;60.84;101035.09;130394;1267;108772;-78
2022/02/26 04:58:40;;;;;;;17.30;7.30;;;;;;;1.07;60.81;101034.98;130505;1267;108637;-78
2022/02/26 05:01:45;;;;;;;15.20;7.60;;;;;;;1.03;60.85;101038.31;130373;1267;108832;-78
2022/02/26 05:04:51;;;;;;;13.00;6.90;;;;;;;0.99;60.76;101040.23;130414;1268;108647;-78
2022/02/26 05:07:56;;;;;;;16.00;7.20;;;;;;;0.96;60.99;101043.90;130463;1267;107734;-78
2022/02/26 05:11:02;;;;;;;16.50;8.00;;;;;;;0.91;60.96;101048.00;130422;1267;107665;-78
2022/02/26 05:14:08;;;;;;;18.30;8.50;;;;;;;0.83;61.15;101054.11;130370;1267;108653;-79
2022/02/26 05:17:13;;;;;;;15.10;7.70;;;;;;;0.80;61.09;101065.48;130382;1267;109023;-78
2022/02/26 05:20:18;;;;;;;14.30;7.50;;;;;;;0.76;61.18;101073.85;130420;1267;107125;-78
2022/02/26 05:23:24;;;;;;;14.60;7.50;;;;;;;0.79;61.22;101079.36;130413;1267;108853;-78
2022/02/26 05:26:29;;;;;;;15.80;7.10;;;;;;;0.86;61.26;101083.41;130340;1267;108829;-77
2022/02/26 05:29:35;;;;;;;12.40;6.20;;;;;;;0.97;61.47;101090.63;130436;1267;108891;-79
2022/02/26 05:32:41;;;;;;;13.50;7.20;;;;;;;1.11;61.33;101096.98;130392;1267;109006;-79
2022/02/26 05:35:46;;;;;;;14.00;7.70;;;;;;;1.25;61.42;101105.61;130487;1267;108828;-80
2022/02/26 05:38:52;;;;;;;16.80;7.20;;;;;;;1.38;61.54;101110.58;130388;1267;107676;-79
2022/02/26 05:41:57;;;;;;;11.90;6.40;;;;;;;1.48;61.47;101117.48;130401;1268;108815;-78
2022/02/26 05:45:03;;;;;;;12.40;7.20;;;;;;;1.57;61.54;101118.10;130346;1267;108989;-78
2022/02/26 05:48:09;;;;;;;15.40;7.10;;;;;;;1.66;61.64;101120.30;130395;1267;107135;-78
2022/02/26 05:51:14;;;;;;;15.50;7.40;;;;;;;1.75;61.62;101127.39;130345;1266;108833;-78
2022/02/26 05:54:20;;;;;;;14.10;7.80;;;;;;;1.83;61.68;101133.53;130360;1267;108571;-80
2022/02/26 05:57:25;;;;;;;14.60;7.70;;;;;;;1.90;61.81;101136.70;130664;1267;108937;-81
2022/02/26 06:00:31;;;;;;;14.00;7.70;;;;;;;1.98;61.90;101146.27;130564;1267;108714;-80
2022/02/26 06:03:36;;;;;;;13.40;7.50;;;;;;;2.06;61.82;101144.65;130515;1267;108461;-80
2022/02/26 06:06:42;;;;;;;14.70;7.80;;;;;;;2.16;61.82;101147.48;130392;1267;107694;-79
2022/02/26 06:09:47;;;;;;;16.00;8.30;;;;;;;2.22;61.91;101149.63;130382;1267;108572;-81
2022/02/26 06:12:53;;;;;;;18.40;8.90;;;;;;;2.27;62.05;101152.75;130485;1267;109173;-79
2022/02/26 06:15:58;;;;;;;15.20;8.20;;;;;;;2.31;62.07;101159.17;130654;1267;108909;-82
2022/02/26 06:19:03;;;;;;;15.20;7.80;;;;;;;2.39;62.06;101165.86;130652;1267;108765;-80
2022/02/26 06:22:09;;;;;;;12.90;7.20;;;;;;;2.45;62.06;101166.25;130565;1267;108747;-80
2022/02/26 06:25:14;;;;;;;14.80;8.30;;;;;;;2.51;62.18;101173.80;130677;1267;108903;-81
2022/02/26 06:28:20;;;;;;;16.50;8.10;;;;;;;2.57;62.27;101177.54;130584;1267;108660;-81
2022/02/26 06:31:25;;;;;;;18.80;8.50;;;;;;;2.64;62.25;101185.81;130645;1266;108924;-80
2022/02/26 06:34:31;;;;;;;20.40;10.10;;;;;;;2.71;62.37;101197.02;130554;1266;107728;-79
2022/02/26 06:37:36;;;;;;;19.40;10.30;;;;;;;2.80;62.37;101206.08;130588;1267;107715;-81
2022/02/26 06:40:42;;;;;;;23.30;11.80;;;;;;;2.87;62.46;101210.79;130600;1266;108802;-80
2022/02/26 06:43:47;;;;;;;23.30;10.10;;;;;;;2.94;62.68;101213.73;130540;1267;108814;-80
2022/02/26 06:46:53;;;;;;;19.40;9.60;;;;;;;3.02;62.79;101219.86;130586;1267;108776;-80
2022/02/26 06:49:58;;;;;;;23.50;10.40;;;;;;;3.08;62.90;101219.52;130588;1267;108806;-80
2022/02/26 07:08:28;;;;;;;19.60;12.60;;;;;;;3.97;62.72;101246.55;126016;1309;649748;-81
2022/02/26 07:11:34;;;;;;;20.40;12.00;;;;;;;4.25;62.68;101250.95;129179;1278;374386;-82
2022/02/26 07:14:39;;;;;;;25.70;14.10;;;;;;;4.34;62.79;101259.58;129579;1277;108787;-81
2022/02/26 07:17:44;;;;;;;56.90;28.10;;;;;;;4.42;63.01;101261.08;129513;1277;108808;-82
2022/02/26 07:20:50;;;;;;;146.90;63.80;;;;;;;4.48;62.83;101263.71;129540;1277;108724;-82
2022/02/26 07:23:56;;;;;;;71.70;32.40;;;;;;;4.52;63.06;101267.52;129499;1277;107693;-82
2022/02/26 07:27:01;;;;;;;48.50;23.60;;;;;;;4.53;62.97;101275.41;129473;1277;108609;-82
2022/02/26 07:30:08;;;;;;;35.70;18.40;;;;;;;4.54;63.12;101279.73;129473;1276;108807;-82
2022/02/26 07:33:14;;;;;;;66.40;27.80;;;;;;;4.55;63.09;101278.66;129447;1277;108574;-83
2022/02/26 07:36:20;;;;;;;73.00;29.60;;;;;;;4.55;63.16;101282.87;129472;1277;108875;-83
2022/02/26 07:39:25;;;;;;;79.50;35.50;;;;;;;4.54;63.33;101286.64;129436;1277;108806;-83
2022/02/26 07:42:32;;;;;;;34.50;18.40;;;;;;;4.57;63.16;101286.63;129431;1277;108633;-81
2022/02/26 07:45:40;;;;;;;23.50;13.80;;;;;;;4.60;63.36;101292.98;129227;1278;107775;-83
2022/02/26 07:48:53;;;;;;;20.60;13.00;;;;;;;4.63;63.46;101292.98;129259;1277;107756;-81
2022/02/26 07:52:03;;;;;;;38.90;22.10;;;;;;;4.65;63.59;101298.49;130341;1267;107835;-81
2022/02/26 08:13:20;;;;;;;24.10;14.80;;;;;;;5.22;63.93;101330.23;125955;1310;648576;-85
2022/02/26 08:16:26;;;;;;;19.60;12.70;;;;;;;5.33;64.01;101340.52;129447;1277;205538;-85
2022/02/26 08:19:31;;;;;;;20.90;11.90;;;;;;;5.15;64.25;101338.75;129509;1280;108837;-85
2022/02/26 08:22:37;;;;;;;19.40;12.40;;;;;;;4.97;64.45;101340.17;129590;1280;109020;-85
2022/02/26 08:25:42;;;;;;;22.30;12.60;;;;;;;4.78;65.04;101346.23;129681;1277;108867;-78
2022/02/26 08:28:48;;;;;;;20.10;12.40;;;;;;;4.71;64.74;101349.10;129694;1277;108709;-85
2022/02/26 08:31:53;;;;;;;20.10;12.00;;;;;;;4.73;65.23;101351.08;129670;1277;108760;-83
2022/02/26 08:34:59;;;;;;;124.60;69.40;;;;;;;4.78;65.08;101348.85;129695;1277;108877;-85
2022/02/26 08:38:05;;;;;;;31.30;18.20;;;;;;;4.97;64.67;101354.48;130079;1277;108886;-85
2022/02/26 08:41:10;;;;;;;26.20;15.70;;;;;;;5.17;64.78;101359.27;130152;1277;107615;-82
2022/02/26 08:44:16;;;;;;;21.60;13.40;;;;;;;5.27;64.95;101363.96;129764;1277;108661;-85
2022/02/26 08:47:22;;;;;;;23.10;14.30;;;;;;;5.25;65.07;101371.52;129701;1277;108928;-85
2022/02/26 08:50:27;;;;;;;20.20;12.70;;;;;;;5.29;65.02;101372.49;129681;1276;107776;-84
2022/02/26 08:53:33;;;;;;;26.50;16.50;;;;;;;5.43;65.03;101375.39;129645;1277;107684;-84
2022/02/26 08:56:38;;;;;;;24.90;16.30;;;;;;;5.56;64.92;101380.95;129811;1274;108781;-84
2022/02/26 08:59:43;;;;;;;23.00;16.70;;;;;;;5.73;64.91;101385.20;129756;1274;108763;-84
2022/02/26 09:02:49;;;;;;;27.10;16.90;;;;;;;5.81;64.98;101387.87;129730;1276;108180;-83
2022/02/26 09:05:54;;;;;;;29.20;17.00;;;;;;;5.79;64.88;101387.14;129834;1276;107915;-82
2022/02/26 09:09:00;;;;;;;22.00;13.40;;;;;;;5.66;65.06;101393.19;129825;1277;108872;-82
2022/02/26 09:12:08;;;;;;;25.00;14.90;;;;;;;5.52;64.87;101396.00;129797;1276;108856;-83
2022/02/26 09:15:15;;;;;;;32.30;17.60;;;;;;;5.42;65.01;101401.38;129723;1277;108865;-83
2022/02/26 09:18:21;;;;;;;24.00;12.70;;;;;;;5.33;65.17;101403.48;129685;1277;110295;-84
2022/02/26 09:21:26;;;;;;;26.60;15.40;;;;;;;5.39;65.63;101407.73;129646;1277;107360;-83
2022/02/26 09:24:32;;;;;;;29.90;17.00;;;;;;;5.56;65.01;101408.99;129600;1277;108699;-83
2022/02/26 09:27:40;;;;;;;22.40;14.00;;;;;;;5.78;65.31;101419.13;129644;1276;108698;-83
2022/02/26 09:30:46;;;;;;;21.60;14.50;;;;;;;5.89;64.92;101421.48;129611;1277;108681;-83
2022/02/26 09:33:51;;;;;;;20.90;13.80;;;;;;;5.97;64.77;101424.91;129577;1277;108998;-83
2022/02/26 09:36:58;;;;;;;21.20;14.30;;;;;;;6.06;64.58;101428.80;129827;1277;109781;-83
2022/02/26 09:40:04;;;;;;;26.00;15.50;;;;;;;6.08;64.46;101429.02;129819;1276;108840;-83
2022/02/26 09:43:10;;;;;;;36.10;19.70;;;;;;;6.15;64.59;101434.44;129798;1277;108629;-81
2022/02/26 09:46:15;;;;;;;29.10;18.00;;;;;;;6.19;64.71;101437.89;129733;1277;108927;-81
2022/02/26 09:49:21;;;;;;;27.30;16.70;;;;;;;6.11;64.94;101444.02;129817;1277;108814;-82
2022/02/26 09:52:28;;;;;;;143.60;65.80;;;;;;;6.06;64.81;101446.26;129853;1278;108494;-82
2022/02/26 09:55:34;;;;;;;28.60;17.30;;;;;;;6.03;64.64;101449.09;129813;1277;108807;-82
2022/02/26 09:58:40;;;;;;;23.60;14.80;;;;;;;5.94;64.79;101456.72;129753;1277;108877;-83
2022/02/26 10:02:00;;;;;;;77.30;39.00;;;;;;;5.99;65.12;101458.92;129771;1277;108529;-83
2022/02/26 10:05:11;;;;;;;22.80;15.20;;;;;;;6.11;65.02;101465.08;129892;1276;109136;-81
2022/02/26 10:08:21;;;;;;;26.70;18.30;;;;;;;6.19;64.70;101465.45;129781;1277;108775;-82
2022/02/26 10:11:29;;;;;;;21.40;12.70;;;;;;;6.40;64.58;101466.64;129954;1274;107358;-82
2022/02/26 10:14:37;;;;;;;18.80;12.00;;;;;;;6.62;63.66;101473.52;129943;1273;107663;-82
2022/02/26 10:17:42;;;;;;;17.90;12.10;;;;;;;6.75;63.32;101468.48;129803;1274;108783;-81
2022/02/26 10:20:54;;;;;;;15.40;10.90;;;;;;;6.97;63.15;101471.64;130051;1274;107860;-82
2022/02/26 10:24:00;;;;;;;51.80;32.40;;;;;;;7.26;63.01;101466.40;130068;1273;109220;-82
2022/02/26 10:27:10;;;;;;;39.40;28.50;;;;;;;7.52;62.54;101458.59;130138;1273;109166;-81
2022/02/26 10:30:22;;;;;;;41.90;32.60;;;;;;;7.62;62.07;101466.48;130039;1274;108824;-82
2022/02/26 10:33:29;;;;;;;;;;;;;;;7.65;62.45;101465.67;130139;1271;108818;-82
2022/02/26 10:36:36;;;;;;;13.60;9.40;;;;;;;7.68;62.69;101466.42;130234;1271;108722;-82
2022/02/26 10:39:44;;;;;;;13.50;9.60;;;;;;;7.59;59.70;101477.30;130174;1271;108828;-82
2022/02/26 10:42:50;;;;;;;11.50;8.40;;;;;;;7.32;59.92;101475.14;130098;1271;108918;-82
2022/02/26 10:46:17;;;;;;;28.70;14.80;;;;;;;7.15;59.80;101477.92;130107;1271;108130;-82
2022/02/26 10:49:22;;;;;;;39.70;21.70;;;;;;;7.03;60.36;101479.76;130130;1271;108723;-82
2022/02/26 10:52:32;;;;;;;16.10;10.50;;;;;;;7.06;60.75;101485.20;130099;1271;107770;-82
2022/02/26 10:55:57;;;;;;;14.70;9.80;;;;;;;7.02;60.16;101487.58;130140;1271;108765;-82
2022/02/26 10:59:04;;;;;;;9.30;6.60;;;;;;;6.97;58.50;101488.62;130439;1268;108752;-82
2022/02/26 11:02:18;;;;;;;277.20;132.30;;;;;;;7.15;59.95;101487.66;130516;1267;108831;-81
2022/02/26 11:05:24;;;;;;;121.50;63.70;;;;;;;7.60;60.15;101485.86;130546;1268;108926;-82
2022/02/26 11:08:30;;;;;;;57.20;28.40;;;;;;;8.07;60.23;101484.61;130383;1268;108746;-82
2022/02/26 11:11:36;;;;;;;37.60;19.40;;;;;;;8.46;59.48;101480.50;130427;1268;108912;-82
2022/02/26 11:14:46;;;;;;;99.00;48.20;;;;;;;8.75;59.57;101481.61;130497;1268;108693;-81
2022/02/26 11:17:53;;;;;;;37.60;19.00;;;;;;;8.91;59.59;101483.69;130458;1268;108689;-81
2022/02/26 11:20:59;;;;;;;12.80;8.10;;;;;;;8.91;58.22;101487.91;130371;1268;108917;-81
2022/02/26 11:24:08;;;;;;;16.70;12.80;;;;;;;8.56;58.34;101499.13;130361;1268;108874;-81
2022/02/26 11:27:13;;;;;;;19.20;13.20;;;;;;;8.15;59.72;101507.60;130360;1267;108836;-80
2022/02/26 11:30:21;;;;;;;21.70;13.60;;;;;;;7.91;60.15;101505.21;130522;1268;108857;-83
2022/02/26 11:33:27;;;;;;;20.90;15.60;;;;;;;7.67;60.66;101507.55;130499;1268;108983;-82
2022/02/26 11:36:55;;;;;;;20.80;13.90;;;;;;;7.35;60.87;101505.95;130463;1268;108837;-75
2022/02/26 11:40:13;;;;;;;23.30;17.10;;;;;;;7.06;61.12;101510.86;130374;1268;108726;-76
2022/02/26 11:43:48;;;;;;;21.70;15.80;;;;;;;6.88;61.50;101509.70;130346;1268;108835;-76
2022/02/26 11:47:13;;;;;;;30.70;25.10;;;;;;;6.73;61.46;101512.64;130409;1268;108777;-77
2022/02/26 11:50:23;;;;;;;30.90;21.50;;;;;;;6.52;61.40;101513.77;130366;1268;108702;-75
2022/02/26 11:53:41;;;;;;;19.50;13.70;;;;;;;6.43;61.55;101513.41;130318;1268;108654;-77
2022/02/26 11:56:51;;;;;;;14.70;10.80;;;;;;;6.42;61.00;101514.56;130347;1267;109022;-76
2022/02/26 12:00:11;;;;;;;14.80;10.20;;;;;;;6.40;60.95;101513.11;130381;1267;109554;-77
2022/02/26 12:03:32;;;;;;;15.60;10.90;;;;;;;6.41;60.99;101513.74;130409;1268;108899;-75
2022/02/26 12:06:40;;;;;;;16.60;12.00;;;;;;;6.35;61.16;101516.94;130370;1268;108693;-78
2022/02/26 12:10:04;;;;;;;19.30;12.70;;;;;;;6.27;61.38;101516.00;130398;1268;108510;-76
2022/02/26 12:13:26;;;;;;;19.10;12.30;;;;;;;6.29;61.27;101518.91;130361;1268;108867;-75
2022/02/26 12:16:36;;;;;;;16.50;12.30;;;;;;;6.25;61.13;101524.58;130352;1268;108324;-76
2022/02/26 12:19:51;;;;;;;17.00;11.50;;;;;;;6.20;61.38;101524.23;130346;1268;107050;-74
2022/02/26 12:23:06;;;;;;;18.70;13.80;;;;;;;6.17;61.65;101526.34;130309;1268;108748;-74
2022/02/26 12:26:14;;;;;;;16.00;11.60;;;;;;;6.14;61.83;101529.00;130377;1268;108864;-76
2022/02/26 12:29:32;;;;;;;15.40;11.00;;;;;;;6.02;61.54;101530.73;130334;1268;106464;-75
2022/02/26 12:32:51;;;;;;;16.50;11.50;;;;;;;5.96;61.40;101532.57;130353;1268;109705;-76
2022/02/26 12:36:11;;;;;;;19.70;12.10;;;;;;;5.89;61.70;101533.43;130384;1268;108852;-76
2022/02/26 12:39:28;;;;;;;24.10;14.70;;;;;;;5.87;61.71;101531.08;130449;1268;108822;-76
2022/02/26 12:42:36;;;;;;;22.00;13.70;;;;;;;5.82;61.95;101536.17;130408;1268;108893;-76
2022/02/26 12:45:43;;;;;;;19.40;12.30;;;;;;;5.78;62.03;101535.70;130449;1268;108840;-77
2022/02/26 12:48:49;;;;;;;19.20;11.20;;;;;;;5.73;61.33;101532.62;130363;1268;107695;-75
2022/02/26 12:51:56;;;;;;;14.40;9.70;;;;;;;5.69;60.79;101535.37;130319;1268;108678;-77
2022/02/26 12:55:05;;;;;;;21.00;14.30;;;;;;;5.65;60.74;101537.34;130436;1268;108730;-74
2022/02/26 12:58:10;;;;;;;16.80;10.70;;;;;;;5.68;60.86;101536.83;130323;1268;108665;-75
2022/02/26 13:01:25;;;;;;;19.60;12.90;;;;;;;5.67;60.51;101540.05;130321;1268;108561;-76
2022/02/26 13:04:31;;;;;;;10.70;7.30;;;;;;;5.67;60.21;101545.16;130374;1268;108635;-76
2022/02/26 13:07:37;;;;;;;11.30;7.30;;;;;;;5.63;59.81;101544.33;130402;1268;108835;-76
2022/02/26 13:10:45;;;;;;;18.00;10.70;;;;;;;5.62;59.91;101546.34;130364;1268;108717;-75
2022/02/26 13:14:03;;;;;;;17.60;11.30;;;;;;;5.65;60.42;101549.88;130343;1268;108739;-75
2022/02/26 13:17:08;;;;;;;25.20;16.10;;;;;;;5.72;61.54;101549.45;130305;1267;108879;-76
2022/02/26 13:20:23;;;;;;;24.80;16.40;;;;;;;5.78;61.86;101550.70;130361;1267;108769;-76
2022/02/26 13:23:33;;;;;;;25.80;17.50;;;;;;;5.84;61.91;101554.77;130374;1268;108654;-76
2022/02/26 13:26:39;;;;;;;29.10;19.50;;;;;;;5.94;62.00;101557.38;130379;1268;107441;-76
2022/02/26 13:29:46;;;;;;;29.80;20.10;;;;;;;6.00;62.14;101559.35;130253;1268;107424;-73
2022/02/26 13:32:54;;;;;;;25.00;18.20;;;;;;;6.04;62.30;101559.45;130301;1268;108946;-76
2022/02/26 13:36:01;;;;;;;89.70;65.50;;;;;;;6.09;62.09;101562.86;130346;1268;109183;-75
2022/02/26 13:39:06;;;;;;;30.90;21.20;;;;;;;6.06;62.28;101562.11;130526;1268;108802;-76
2022/02/26 13:42:13;;;;;;;30.50;20.60;;;;;;;6.05;62.45;101563.60;130537;1267;108769;-76
2022/02/26 13:45:19;;;;;;;32.20;24.80;;;;;;;6.06;62.47;101565.70;130400;1267;109077;-75
2022/02/26 13:48:24;;;;;;;49.40;39.40;;;;;;;6.07;62.44;101570.78;130377;1268;108589;-76
2022/02/26 13:51:34;;;;;;;40.50;28.40;;;;;;;6.09;62.81;101571.48;130297;1268;108974;-76
2022/02/26 13:54:42;;;;;;;33.50;24.60;;;;;;;6.08;62.94;101574.20;130301;1268;108834;-77
2022/02/26 13:57:49;;;;;;;29.90;21.60;;;;;;;6.08;63.10;101577.59;130312;1268;108858;-75
2022/02/26 14:01:07;;;;;;;26.20;17.70;;;;;;;6.09;62.81;101576.08;130245;1268;108690;-75
2022/02/26 14:04:22;;;;;;;23.40;16.70;;;;;;;6.11;62.99;101576.90;130307;1267;108883;-76
2022/02/26 14:07:39;;;;;;;31.20;21.30;;;;;;;6.15;63.46;101579.83;130388;1268;108794;-74
2022/02/26 14:10:46;;;;;;;30.50;19.80;;;;;;;6.14;63.67;101583.59;130322;1268;108805;-75
2022/02/26 14:13:51;;;;;;;27.50;18.50;;;;;;;6.14;63.55;101584.48;130214;1268;108570;-74
2022/02/26 14:17:02;;;;;;;37.20;24.90;;;;;;;6.16;63.35;101588.75;130309;1268;108942;-75
2022/02/26 14:20:11;;;;;;;26.90;19.10;;;;;;;6.21;63.49;101591.10;130299;1268;108869;-76
2022/02/26 14:23:17;;;;;;;22.70;15.70;;;;;;;6.19;63.47;101594.23;130333;1268;108551;-75
2022/02/26 14:26:22;;;;;;;30.80;20.80;;;;;;;6.13;63.51;101595.34;130287;1268;108719;-75
2022/02/26 14:29:36;;;;;;;23.60;16.80;;;;;;;6.04;63.52;101599.35;130325;1268;108814;-74
2022/02/26 14:32:44;;;;;;;86.10;67.40;;;;;;;6.03;63.81;101604.55;130335;1268;108819;-77
2022/02/26 14:35:50;;;;;;;110.90;84.90;;;;;;;6.02;63.90;101606.58;130369;1268;108881;-75
2022/02/26 14:38:55;;;;;;;37.10;25.50;;;;;;;6.00;63.82;101605.77;130301;1268;108854;-74